Current | Forecast
Updated: 12:00 AM CEST on October 17, 2017
Observed at Osijek - Cepin, Hungary
Temperature 11°C
Humidity 88%
Dew Point 9°C
Wind East at 4 km/h
Pressure 1027 hPa (Steady)
Conditions Clear
Visibility -
UV N/A
Clouds
Yesterday's Maximum 23°C
Yesterday's Minimum 7°C approx.
Yesterday's Heating Degree Days 6 approx.
Sunrise7:04 AM CEST
Sunset5:55 PM CEST
Moon Rise4:11 AM CEST
Moon Set5:12 PM CEST
Moon PhaseMoon Phase
Waning Crescent
Raw METARMETAR LDOS 162200Z 10002KT CAVOK 11/09 Q1027


Monday
. High: 71° F.
Tuesday
. High: 82° F.
Wednesday
. High: 87° F.
Thursday
. High: 86° F.
Friday
. High: 75° F.
Saturday
. High: 77° F.
Sunday
. High: 86° F.
Monday
. High: 75° F.

Units: English | Metric

Find the Weather for any City, State or Zipcode, or Country:

U.S. State List | Severe Weather | Tropical Storms | Ski Conditions
United States | Canada | Central America | South America | Asia | Europe | Australia | Africa | Islands

Weather Underground

© Copyright 2017
The Weather Company, LLC